Time;durP1;ratioP1;P1;durP2;ratioP2;P2;SDS_P1;SDS_P2;PMS_P1;PMS_P2;Temp;Humidity;BMP_temperature;BMP_pressure;BME280_temperature;BME280_humidity;BME280_pressure;Samples;Min_cycle;Max_cycle;Signal;HPM_P1;HPM_P2
2024/01/03 00:00:08;;;;;;;7.18;1.88;;;;;;;;;;4996954;28;20062;-70
2024/01/03 00:02:55;;;;;;;5.97;2.03;;;;;;;;;;5002065;28;20141;-69
2024/01/03 00:05:33;;;;;;;6.10;1.80;;;;;;;;;;5002710;28;20060;-68
2024/01/03 00:07:59;;;;;;;4.00;2.05;;;;;;;;;;5002292;28;20104;-68
2024/01/03 00:10:45;;;;;;;8.82;2.03;;;;;;;;;;5003216;28;20062;-69
2024/01/03 00:13:29;;;;;;;3.33;1.60;;;;;;;;;;5001044;28;20053;-66
2024/01/03 00:16:01;;;;;;;2.50;1.60;;;;;;;;;;5006573;28;20053;-70
2024/01/03 00:18:43;;;;;;;3.40;2.10;;;;;;;;;;5010018;28;20045;-68
2024/01/03 00:21:15;;;;;;;6.10;1.70;;;;;;;;;;4999537;28;20039;-67
2024/01/03 00:23:56;;;;;;;11.10;2.10;;;;;;;;;;4992745;28;20120;-70
2024/01/03 00:26:24;;;;;;;3.05;1.90;;;;;;;;;;5003464;28;20494;-67
2024/01/03 00:28:51;;;;;;;3.17;1.80;;;;;;;;;;5007925;28;20046;-66
2024/01/03 00:31:38;;;;;;;5.50;2.03;;;;;;;;;;4999533;28;20061;-67
2024/01/03 00:34:24;;;;;;;4.32;1.98;;;;;;;;;;5009482;28;20072;-68
2024/01/03 00:36:54;;;;;;;3.78;1.83;;;;;;;;;;5002077;28;20060;-69
2024/01/03 00:39:36;;;;;;;4.78;2.30;;;;;;;;;;5010402;28;20069;-68
2024/01/03 00:42:04;;;;;;;4.03;2.00;;;;;;;;;;5000136;28;20069;-68
2024/01/03 00:44:31;;;;;;;3.90;1.88;;;;;;;;;;5000614;28;20057;-67
2024/01/03 00:46:58;;;;;;;4.80;2.10;;;;;;;;;;5003951;28;20512;-69
2024/01/03 00:49:27;;;;;;;3.97;2.08;;;;;;;;;;5004135;28;20166;-70
2024/01/03 00:51:55;;;;;;;3.45;1.63;;;;;;;;;;5007670;28;20081;-66
2024/01/03 00:54:22;;;;;;;3.83;1.92;;;;;;;;;;5002192;28;20050;-67
2024/01/03 00:56:49;;;;;;;3.85;1.80;;;;;;;;;;5006385;28;20424;-68
2024/01/03 00:59:16;;;;;;;3.38;1.73;;;;;;;;;;4999940;28;20080;-68
2024/01/03 01:01:45;;;;;;;6.50;1.75;;;;;;;;;;5000834;28;20560;-67
2024/01/03 01:04:14;;;;;;;2.75;1.60;;;;;;;;;;5001912;28;20077;-68
2024/01/03 01:06:41;;;;;;;3.17;1.92;;;;;;;;;;4998498;28;20069;-67
2024/01/03 01:09:08;;;;;;;5.90;2.10;;;;;;;;;;4999730;28;20056;-67
2024/01/03 01:11:35;;;;;;;5.10;2.10;;;;;;;;;;4998316;28;20050;-68
2024/01/03 01:14:02;;;;;;;4.03;1.70;;;;;;;;;;5002696;28;20084;-71
2024/01/03 01:16:29;;;;;;;10.60;1.67;;;;;;;;;;5001384;28;20095;-68
2024/01/03 01:18:55;;;;;;;4.03;1.98;;;;;;;;;;5003116;28;20046;-68
2024/01/03 01:21:23;;;;;;;4.07;1.70;;;;;;;;;;4996699;28;20085;-66
2024/01/03 01:23:49;;;;;;;3.13;1.90;;;;;;;;;;4997745;28;20069;-66
2024/01/03 01:26:17;;;;;;;3.03;1.60;;;;;;;;;;5004324;28;20107;-67
2024/01/03 01:28:43;;;;;;;4.97;1.90;;;;;;;;;;4998067;28;20049;-66
2024/01/03 01:31:09;;;;;;;8.95;2.13;;;;;;;;;;4998483;28;20064;-67
2024/01/03 01:33:34;;;;;;;4.32;1.73;;;;;;;;;;5007277;28;20415;-67
2024/01/03 01:36:01;;;;;;;6.43;1.90;;;;;;;;;;5001389;28;20494;-67
2024/01/03 01:38:27;;;;;;;4.93;1.70;;;;;;;;;;4993655;28;20062;-66
2024/01/03 01:40:53;;;;;;;6.75;2.00;;;;;;;;;;5000053;28;20073;-66
2024/01/03 01:43:21;;;;;;;7.80;1.90;;;;;;;;;;5006192;28;20058;-67
2024/01/03 01:45:49;;;;;;;6.22;1.73;;;;;;;;;;5004587;28;20049;-67
2024/01/03 01:48:16;;;;;;;6.63;1.70;;;;;;;;;;5005042;28;20050;-65
2024/01/03 01:50:45;;;;;;;8.07;2.35;;;;;;;;;;5006872;28;20121;-65
2024/01/03 01:53:13;;;;;;;3.95;1.83;;;;;;;;;;5008100;28;20099;-66
2024/01/03 01:55:40;;;;;;;3.38;1.73;;;;;;;;;;5001773;28;20049;-67
2024/01/03 01:58:07;;;;;;;19.80;2.30;;;;;;;;;;5005436;28;20072;-66
2024/01/03 02:00:35;;;;;;;4.15;2.10;;;;;;;;;;5006920;28;20078;-67
2024/01/03 02:03:02;;;;;;;5.85;1.73;;;;;;;;;;5003360;28;20164;-66
2024/01/03 02:05:28;;;;;;;2.88;1.80;;;;;;;;;;5005770;28;20041;-69
2024/01/03 02:07:54;;;;;;;3.42;1.60;;;;;;;;;;5004760;28;20058;-66
2024/01/03 02:10:20;;;;;;;4.43;1.63;;;;;;;;;;5003417;28;20449;-68
2024/01/03 02:12:49;;;;;;;4.90;1.65;;;;;;;;;;4997608;28;20042;-67
2024/01/03 02:15:15;;;;;;;3.10;1.60;;;;;;;;;;5005461;28;20081;-67
2024/01/03 02:17:41;;;;;;;2.20;1.35;;;;;;;;;;5002305;28;20054;-65
2024/01/03 02:20:09;;;;;;;2.25;1.52;;;;;;;;;;4999977;28;20155;-68
2024/01/03 02:22:34;;;;;;;4.25;1.52;;;;;;;;;;5004264;28;20152;-68
2024/01/03 02:25:04;;;;;;;16.15;2.00;;;;;;;;;;4998217;28;20045;-69
2024/01/03 02:27:30;;;;;;;6.28;1.90;;;;;;;;;;5005376;28;20469;-69
2024/01/03 02:29:57;;;;;;;7.13;1.35;;;;;;;;;;4997563;28;20100;-68
2024/01/03 02:32:25;;;;;;;6.18;1.90;;;;;;;;;;5006845;28;20137;-66
2024/01/03 02:34:53;;;;;;;2.38;1.67;;;;;;;;;;4996737;28;20042;-68
2024/01/03 02:37:22;;;;;;;3.38;1.70;;;;;;;;;;5007200;28;20045;-67
2024/01/03 02:39:49;;;;;;;3.80;1.67;;;;;;;;;;4991353;28;20516;-68
2024/01/03 02:42:15;;;;;;;4.68;1.52;;;;;;;;;;4995758;28;20078;-66
2024/01/03 02:44:42;;;;;;;6.43;1.60;;;;;;;;;;4993968;28;20045;-69
2024/01/03 02:47:09;;;;;;;3.53;1.48;;;;;;;;;;5001388;28;20050;-68
2024/01/03 02:49:35;;;;;;;3.47;1.60;;;;;;;;;;5001331;28;20062;-68
2024/01/03 02:52:01;;;;;;;2.58;1.50;;;;;;;;;;4997489;28;20112;-67
2024/01/03 02:54:28;;;;;;;2.58;1.50;;;;;;;;;;5002858;28;20099;-67
2024/01/03 02:56:54;;;;;;;3.28;1.33;;;;;;;;;;5001519;28;20147;-66
2024/01/03 02:59:21;;;;;;;4.47;1.75;;;;;;;;;;5002443;28;20045;-67
2024/01/03 03:01:47;;;;;;;3.17;1.55;;;;;;;;;;5001851;28;20144;-67
2024/01/03 03:04:13;;;;;;;2.28;1.58;;;;;;;;;;5002119;28;20057;-68
2024/01/03 03:06:40;;;;;;;3.28;1.70;;;;;;;;;;5004611;28;20049;-68
2024/01/03 03:09:08;;;;;;;2.85;1.70;;;;;;;;;;5003190;28;20099;-68
2024/01/03 03:11:35;;;;;;;3.03;1.65;;;;;;;;;;4997388;28;20372;-68
2024/01/03 03:14:03;;;;;;;4.90;1.80;;;;;;;;;;5004279;28;20048;-68
2024/01/03 03:16:29;;;;;;;2.75;1.38;;;;;;;;;;5003531;28;20672;-68
2024/01/03 03:18:57;;;;;;;5.75;1.73;;;;;;;;;;5006570;28;20534;-67
2024/01/03 03:21:22;;;;;;;4.80;1.88;;;;;;;;;;4992399;28;20503;-66
2024/01/03 03:23:49;;;;;;;5.47;1.50;;;;;;;;;;5004576;28;20062;-68
2024/01/03 03:26:14;;;;;;;3.78;1.67;;;;;;;;;;5002899;28;20056;-66
2024/01/03 03:28:41;;;;;;;5.55;1.50;;;;;;;;;;5002814;28;20342;-68
2024/01/03 03:31:06;;;;;;;4.85;1.42;;;;;;;;;;5018896;28;20052;-68
2024/01/03 03:33:33;;;;;;;2.58;1.33;;;;;;;;;;5001290;28;20076;-67
2024/01/03 03:35:59;;;;;;;3.38;1.40;;;;;;;;;;5005893;28;20156;-67
2024/01/03 03:38:25;;;;;;;4.20;1.65;;;;;;;;;;5001399;28;20495;-68
2024/01/03 03:40:51;;;;;;;3.50;1.58;;;;;;;;;;4999888;28;20041;-67
2024/01/03 03:43:17;;;;;;;2.50;1.40;;;;;;;;;;5002803;28;20057;-66
2024/01/03 03:45:44;;;;;;;2.03;1.30;;;;;;;;;;5003430;28;20137;-68
2024/01/03 03:48:11;;;;;;;3.83;1.52;;;;;;;;;;5005108;28;20137;-68
2024/01/03 03:50:37;;;;;;;2.28;1.33;;;;;;;;;;5002701;28;20150;-67
2024/01/03 03:53:10;;;;;;;5.18;1.58;;;;;;;;;;4997099;28;20050;-67
2024/01/03 03:55:41;;;;;;;4.05;1.50;;;;;;;;;;4999980;28;20042;-65
2024/01/03 03:58:09;;;;;;;7.28;1.67;;;;;;;;;;4997394;28;20055;-69
2024/01/03 04:00:36;;;;;;;2.25;1.27;;;;;;;;;;4999163;28;20526;-67
2024/01/03 04:03:06;;;;;;;1.75;1.42;;;;;;;;;;5003493;28;20061;-67
2024/01/03 04:05:34;;;;;;;2.58;1.52;;;;;;;;;;5010462;28;20045;-65
2024/01/03 04:08:01;;;;;;;2.40;1.40;;;;;;;;;;5010459;28;20060;-66
2024/01/03 04:10:28;;;;;;;1.88;1.45;;;;;;;;;;5001355;28;20050;-66
2024/01/03 04:12:55;;;;;;;7.18;1.55;;;;;;;;;;5006278;28;20042;-65
2024/01/03 04:15:25;;;;;;;1.55;1.20;;;;;;;;;;5006677;28;20127;-65
2024/01/03 04:17:53;;;;;;;4.05;1.60;;;;;;;;;;5006658;28;20404;-66
2024/01/03 04:20:20;;;;;;;2.42;1.33;;;;;;;;;;5004515;28;20404;-65
2024/01/03 04:22:48;;;;;;;4.88;1.65;;;;;;;;;;5006952;28;20057;-65
2024/01/03 04:25:14;;;;;;;2.72;1.35;;;;;;;;;;5005502;28;20051;-66
2024/01/03 04:27:41;;;;;;;2.55;1.67;;;;;;;;;;5001969;28;20050;-66
2024/01/03 04:30:08;;;;;;;1.83;1.25;;;;;;;;;;4993250;28;20052;-66
2024/01/03 04:32:35;;;;;;;2.88;1.60;;;;;;;;;;5005170;28;20096;-66
2024/01/03 04:35:01;;;;;;;2.65;1.50;;;;;;;;;;5006792;28;20119;-67
2024/01/03 04:37:30;;;;;;;2.83;1.50;;;;;;;;;;5001599;28;20117;-67
2024/01/03 04:39:57;;;;;;;2.90;1.60;;;;;;;;;;5006181;28;20034;-66
2024/01/03 04:42:24;;;;;;;4.50;1.63;;;;;;;;;;5001722;28;20052;-67
2024/01/03 04:44:51;;;;;;;4.88;1.80;;;;;;;;;;5007803;28;20499;-66
2024/01/03 04:47:18;;;;;;;4.85;1.58;;;;;;;;;;4994355;28;20272;-66
2024/01/03 04:49:44;;;;;;;4.30;1.67;;;;;;;;;;4998354;28;20192;-65
2024/01/03 04:52:11;;;;;;;2.33;1.42;;;;;;;;;;5002309;28;20064;-67
2024/01/03 04:54:38;;;;;;;3.05;1.50;;;;;;;;;;5003130;28;20479;-65
2024/01/03 04:57:07;;;;;;;5.30;1.73;;;;;;;;;;5004966;28;20403;-67
2024/01/03 04:59:33;;;;;;;3.78;1.55;;;;;;;;;;5006522;28;20037;-66
2024/01/03 05:01:59;;;;;;;2.08;1.25;;;;;;;;;;5004097;28;20054;-66
2024/01/03 05:04:26;;;;;;;2.80;1.48;;;;;;;;;;5001173;28;20560;-67
2024/01/03 05:06:53;;;;;;;1.67;1.20;;;;;;;;;;5000177;28;20172;-65
2024/01/03 05:09:20;;;;;;;1.95;1.30;;;;;;;;;;5001471;28;20062;-66
2024/01/03 05:11:50;;;;;;;3.22;1.67;;;;;;;;;;4979770;28;20528;-66
2024/01/03 05:14:16;;;;;;;4.55;1.50;;;;;;;;;;5003297;28;20340;-64
2024/01/03 05:16:43;;;;;;;2.85;1.77;;;;;;;;;;5002639;28;20534;-70
2024/01/03 05:19:09;;;;;;;5.07;1.77;;;;;;;;;;5001636;28;20072;-65
2024/01/03 05:21:35;;;;;;;2.58;1.40;;;;;;;;;;5002832;28;20042;-66
2024/01/03 05:24:02;;;;;;;4.45;1.67;;;;;;;;;;5005145;28;20080;-65
2024/01/03 05:26:31;;;;;;;3.42;1.52;;;;;;;;;;5001987;28;20042;-65
2024/01/03 05:28:57;;;;;;;3.35;1.60;;;;;;;;;;5005211;28;20053;-65
2024/01/03 05:31:25;;;;;;;2.13;1.38;;;;;;;;;;5001517;28;20137;-64
2024/01/03 05:33:51;;;;;;;1.98;1.50;;;;;;;;;;5004246;28;20050;-66
2024/01/03 05:36:17;;;;;;;3.20;1.60;;;;;;;;;;4999644;28;20080;-65
2024/01/03 05:38:45;;;;;;;7.18;1.77;;;;;;;;;;5003112;28;20484;-66
2024/01/03 05:41:11;;;;;;;3.83;1.55;;;;;;;;;;4999040;28;20061;-66
2024/01/03 05:43:37;;;;;;;4.90;1.42;;;;;;;;;;4998117;28;20151;-66
2024/01/03 05:46:05;;;;;;;5.10;1.42;;;;;;;;;;5003666;28;20066;-66
2024/01/03 05:48:31;;;;;;;2.42;1.65;;;;;;;;;;4998673;28;20050;-67
2024/01/03 05:50:57;;;;;;;3.55;1.30;;;;;;;;;;5000120;28;20061;-66
2024/01/03 05:53:24;;;;;;;2.30;1.60;;;;;;;;;;5002883;28;20054;-67
2024/01/03 05:55:51;;;;;;;2.70;1.58;;;;;;;;;;5003678;28;20053;-66
2024/01/03 05:58:17;;;;;;;2.33;1.58;;;;;;;;;;4995995;28;20515;-67
2024/01/03 06:00:44;;;;;;;3.85;1.50;;;;;;;;;;5010105;28;20049;-66
2024/01/03 06:03:10;;;;;;;4.53;1.70;;;;;;;;;;5000202;28;20060;-67
2024/01/03 06:05:37;;;;;;;2.72;1.48;;;;;;;;;;5001071;28;20053;-66
2024/01/03 06:08:04;;;;;;;9.73;1.48;;;;;;;;;;5004450;28;20045;-65
2024/01/03 06:10:30;;;;;;;4.05;1.70;;;;;;;;;;4992087;28;20132;-66
2024/01/03 06:12:57;;;;;;;2.78;1.25;;;;;;;;;;5000295;28;20125;-67
2024/01/03 06:15:25;;;;;;;3.67;1.65;;;;;;;;;;4997293;28;20058;-67
2024/01/03 06:17:51;;;;;;;1.95;1.17;;;;;;;;;;5000969;28;20130;-65
2024/01/03 06:20:17;;;;;;;3.10;1.40;;;;;;;;;;4997863;28;20057;-66
2024/01/03 06:22:43;;;;;;;3.08;1.33;;;;;;;;;;4999930;28;20061;-65
2024/01/03 06:25:09;;;;;;;2.28;1.20;;;;;;;;;;5019311;28;20054;-64
2024/01/03 06:27:35;;;;;;;5.80;1.60;;;;;;;;;;5006211;28;20088;-65
2024/01/03 06:30:01;;;;;;;2.55;1.35;;;;;;;;;;4995406;28;20423;-65
2024/01/03 06:32:27;;;;;;;3.58;1.70;;;;;;;;;;5003308;28;20054;-66
2024/01/03 06:34:59;;;;;;;4.85;1.50;;;;;;;;;;4999402;28;20144;-66
2024/01/03 06:37:26;;;;;;;5.43;1.50;;;;;;;;;;5006647;28;20065;-65
2024/01/03 06:39:53;;;;;;;1.98;1.30;;;;;;;;;;5005791;28;20041;-65
2024/01/03 06:42:19;;;;;;;3.45;1.65;;;;;;;;;;5003705;28;20511;-67
2024/01/03 06:44:45;;;;;;;3.05;1.42;;;;;;;;;;5001599;28;20058;-66
2024/01/03 06:47:11;;;;;;;2.70;1.77;;;;;;;;;;4998342;28;20073;-66
2024/01/03 06:49:37;;;;;;;3.92;1.70;;;;;;;;;;5000538;28;20402;-66
2024/01/03 06:52:04;;;;;;;3.67;1.55;;;;;;;;;;5006454;28;20136;-65
2024/01/03 06:54:31;;;;;;;4.75;1.52;;;;;;;;;;5005030;28;20092;-66
2024/01/03 06:57:21;;;;;;;3.75;1.33;;;;;;;;;;5003799;28;20412;-66
2024/01/03 06:59:47;;;;;;;7.38;1.50;;;;;;;;;;5009186;28;20152;-65
2024/01/03 07:02:14;;;;;;;5.32;1.40;;;;;;;;;;5001220;28;20057;-66
2024/01/03 07:04:41;;;;;;;3.55;1.35;;;;;;;;;;4995470;28;20571;-68
2024/01/03 07:07:16;;;;;;;5.03;1.88;;;;;;;;;;5007513;28;20046;-67
2024/01/03 07:09:45;;;;;;;2.58;1.30;;;;;;;;;;4998059;28;20294;-66
2024/01/03 07:12:10;;;;;;;10.20;1.42;;;;;;;;;;4994521;28;20168;-66
2024/01/03 07:14:39;;;;;;;1.83;1.30;;;;;;;;;;5000846;28;20418;-64
2024/01/03 07:17:06;;;;;;;4.90;1.60;;;;;;;;;;4993708;28;20104;-63
2024/01/03 07:19:33;;;;;;;3.30;1.48;;;;;;;;;;5001367;28;20056;-64
2024/01/03 07:22:00;;;;;;;4.60;1.83;;;;;;;;;;4984047;28;20080;-64
2024/01/03 07:24:26;;;;;;;5.78;1.73;;;;;;;;;;4999147;28;20104;-63
2024/01/03 07:26:52;;;;;;;6.35;1.70;;;;;;;;;;4999833;28;20413;-64
2024/01/03 07:29:18;;;;;;;1.95;1.20;;;;;;;;;;5010185;28;20133;-66
2024/01/03 07:31:45;;;;;;;4.75;1.42;;;;;;;;;;5003351;28;20478;-64
2024/01/03 07:34:12;;;;;;;4.43;1.55;;;;;;;;;;4995318;28;20041;-64
2024/01/03 07:36:38;;;;;;;3.10;1.48;;;;;;;;;;5005881;28;20306;-65
2024/01/03 07:39:05;;;;;;;2.97;1.30;;;;;;;;;;5019385;28;20324;-65
2024/01/03 07:41:31;;;;;;;5.97;1.52;;;;;;;;;;5004899;28;20062;-64
2024/01/03 07:43:58;;;;;;;4.78;1.40;;;;;;;;;;4994319;28;20038;-64
2024/01/03 07:46:24;;;;;;;4.25;1.83;;;;;;;;;;5005371;28;20064;-66
2024/01/03 07:48:50;;;;;;;6.72;1.70;;;;;;;;;;5007844;28;20041;-65
2024/01/03 07:51:18;;;;;;;4.35;1.55;;;;;;;;;;5009038;28;20493;-64
2024/01/03 07:53:45;;;;;;;3.63;1.50;;;;;;;;;;5002966;28;20081;-66
2024/01/03 07:56:11;;;;;;;3.78;1.60;;;;;;;;;;5013012;28;20452;-65
2024/01/03 07:58:37;;;;;;;4.55;1.50;;;;;;;;;;5008141;28;20110;-67
2024/01/03 08:01:04;;;;;;;7.70;1.60;;;;;;;;;;5006450;28;20702;-65
2024/01/03 08:03:30;;;;;;;10.73;1.80;;;;;;;;;;5004771;28;20049;-65
2024/01/03 08:05:57;;;;;;;3.55;1.60;;;;;;;;;;5007637;28;20089;-65
2024/01/03 08:08:23;;;;;;;6.05;1.80;;;;;;;;;;5016075;28;20198;-66
2024/01/03 08:10:53;;;;;;;7.90;1.60;;;;;;;;;;5004789;28;20507;-68
2024/01/03 08:13:21;;;;;;;5.65;1.77;;;;;;;;;;5004576;28;20058;-65
2024/01/03 08:15:47;;;;;;;3.10;1.38;;;;;;;;;;5006710;28;20042;-69
2024/01/03 08:18:13;;;;;;;5.90;1.55;;;;;;;;;;5007506;28;20133;-63
2024/01/03 08:20:40;;;;;;;8.65;1.60;;;;;;;;;;5006638;28;20054;-65
2024/01/03 08:23:07;;;;;;;7.93;1.90;;;;;;;;;;5004769;28;20133;-66
2024/01/03 08:25:34;;;;;;;15.43;1.75;;;;;;;;;;5007530;28;20062;-66
2024/01/03 08:28:02;;;;;;;4.30;1.63;;;;;;;;;;5007219;28;20041;-65
2024/01/03 08:30:28;;;;;;;3.88;1.60;;;;;;;;;;5003776;28;20061;-66
2024/01/03 08:32:55;;;;;;;2.78;1.30;;;;;;;;;;5004483;28;20233;-65
2024/01/03 08:35:21;;;;;;;2.75;1.40;;;;;;;;;;5008623;28;20503;-66
2024/01/03 08:37:47;;;;;;;5.70;1.50;;;;;;;;;;5008980;28;20053;-67
2024/01/03 08:40:16;;;;;;;3.40;1.40;;;;;;;;;;5007943;28;20428;-64
2024/01/03 08:42:42;;;;;;;4.70;1.45;;;;;;;;;;5001943;28;20058;-65
2024/01/03 08:45:09;;;;;;;3.05;1.45;;;;;;;;;;5000436;28;20520;-66
2024/01/03 08:47:37;;;;;;;4.30;1.30;;;;;;;;;;5004101;28;20041;-65
2024/01/03 08:50:03;;;;;;;6.55;1.70;;;;;;;;;;5007390;28;20060;-65
2024/01/03 08:52:30;;;;;;;10.20;1.70;;;;;;;;;;5007859;28;20069;-66
2024/01/03 08:54:59;;;;;;;2.60;1.35;;;;;;;;;;5000317;28;20508;-64
2024/01/03 08:57:25;;;;;;;8.70;2.05;;;;;;;;;;5003290;28;20584;-64
2024/01/03 08:59:53;;;;;;;3.15;1.40;;;;;;;;;;5018956;28;20125;-65
2024/01/03 09:02:20;;;;;;;2.90;1.33;;;;;;;;;;5006167;28;20065;-65
2024/01/03 09:04:46;;;;;;;6.53;1.83;;;;;;;;;;5004297;28;20487;-68
2024/01/03 09:07:16;;;;;;;6.65;1.60;;;;;;;;;;5000458;28;20500;-66
2024/01/03 09:09:42;;;;;;;2.90;1.77;;;;;;;;;;5004460;28;20054;-67
2024/01/03 09:12:10;;;;;;;5.18;1.70;;;;;;;;;;5008691;28;20420;-70
2024/01/03 09:14:36;;;;;;;4.63;1.60;;;;;;;;;;5006315;28;20061;-65
2024/01/03 09:17:03;;;;;;;8.52;1.58;;;;;;;;;;5008228;28;20144;-65
2024/01/03 09:19:30;;;;;;;2.63;1.60;;;;;;;;;;5005770;28;20042;-65
2024/01/03 09:21:59;;;;;;;4.97;2.00;;;;;;;;;;5002790;28;20140;-66
2024/01/03 09:24:27;;;;;;;9.55;1.85;;;;;;;;;;5003665;28;20041;-68
2024/01/03 09:26:54;;;;;;;2.67;1.70;;;;;;;;;;5005647;28;20137;-67
2024/01/03 09:29:20;;;;;;;6.80;1.90;;;;;;;;;;5004107;28;20496;-67
2024/01/03 09:31:46;;;;;;;9.75;2.60;;;;;;;;;;5004890;28;20463;-66
2024/01/03 09:34:12;;;;;;;3.42;1.88;;;;;;;;;;5005160;28;20251;-66
2024/01/03 09:36:38;;;;;;;3.50;1.85;;;;;;;;;;5005962;28;20136;-67
2024/01/03 09:39:08;;;;;;;6.22;2.33;;;;;;;;;;5010189;28;20061;-65
2024/01/03 09:41:34;;;;;;;5.10;1.70;;;;;;;;;;5007360;28;20057;-65
2024/01/03 09:44:01;;;;;;;8.27;1.80;;;;;;;;;;5000661;28;20481;-64
2024/01/03 09:46:28;;;;;;;2.47;1.80;;;;;;;;;;4999060;28;20627;-65
2024/01/03 09:48:56;;;;;;;4.78;2.03;;;;;;;;;;5006564;28;20436;-65
2024/01/03 09:51:22;;;;;;;2.63;1.70;;;;;;;;;;5005010;28;20624;-66
2024/01/03 09:53:53;;;;;;;7.45;2.00;;;;;;;;;;5006791;28;20046;-67
2024/01/03 09:56:19;;;;;;;3.40;1.77;;;;;;;;;;5003950;28;20053;-68
2024/01/03 09:58:46;;;;;;;4.43;1.77;;;;;;;;;;5005061;28;20045;-66
2024/01/03 10:01:12;;;;;;;7.13;2.28;;;;;;;;;;5004026;28;20066;-66
2024/01/03 10:03:39;;;;;;;7.95;1.83;;;;;;;;;;5003385;28;20042;-65
2024/01/03 10:06:13;;;;;;;7.32;2.22;;;;;;;;;;5001113;28;20098;-67
2024/01/03 10:08:40;;;;;;;5.38;1.90;;;;;;;;;;5004019;28;20632;-66
2024/01/03 10:11:20;;;;;;;5.50;2.20;;;;;;;;;;5001893;28;20050;-68
2024/01/03 10:13:50;;;;;;;3.45;1.98;;;;;;;;;;5004006;28;20050;-64
2024/01/03 10:16:29;;;;;;;4.55;2.08;;;;;;;;;;5005759;28;20559;-64
2024/01/03 10:19:15;;;;;;;7.63;2.25;;;;;;;;;;5005486;28;20523;-67
2024/01/03 10:21:53;;;;;;;10.23;2.63;;;;;;;;;;5004431;28;20128;-67
2024/01/03 10:24:24;;;;;;;3.88;1.95;;;;;;;;;;5003464;28;20064;-67
2024/01/03 10:26:50;;;;;;;4.93;2.05;;;;;;;;;;4992408;28;20148;-66
2024/01/03 10:29:19;;;;;;;6.93;2.10;;;;;;;;;;5005459;28;20140;-67
2024/01/03 10:31:48;;;;;;;8.55;2.20;;;;;;;;;;5007950;28;20136;-66
2024/01/03 10:34:20;;;;;;;11.40;2.15;;;;;;;;;;5001172;28;20050;-65
2024/01/03 10:36:52;;;;;;;7.22;1.90;;;;;;;;;;4995200;28;20058;-67
2024/01/03 10:39:20;;;;;;;11.43;2.22;;;;;;;;;;5000010;28;20697;-68
2024/01/03 10:41:47;;;;;;;5.13;2.17;;;;;;;;;;5004011;28;20082;-67
2024/01/03 10:44:17;;;;;;;2.60;1.60;;;;;;;;;;4991763;28;20069;-67
2024/01/03 10:46:47;;;;;;;9.98;2.20;;;;;;;;;;5006498;28;20112;-66
2024/01/03 10:49:15;;;;;;;12.32;2.00;;;;;;;;;;5005753;28;20132;-66
2024/01/03 10:51:43;;;;;;;8.23;2.22;;;;;;;;;;5008062;28;20476;-64
2024/01/03 10:54:15;;;;;;;10.13;2.10;;;;;;;;;;5003581;28;20499;-67
2024/01/03 10:56:48;;;;;;;6.63;1.88;;;;;;;;;;5006373;28;20053;-66
2024/01/03 10:59:15;;;;;;;5.13;2.25;;;;;;;;;;4996854;28;20053;-69
2024/01/03 11:02:07;;;;;;;6.43;1.95;;;;;;;;;;4996151;28;20229;-65
2024/01/03 11:04:50;;;;;;;5.78;2.17;;;;;;;;;;5001533;28;20049;-65
2024/01/03 11:07:25;;;;;;;2.60;1.65;;;;;;;;;;5005024;28;20061;-66
2024/01/03 11:09:51;;;;;;;8.15;1.80;;;;;;;;;;5003665;28;20057;-66
2024/01/03 11:12:17;;;;;;;4.55;1.90;;;;;;;;;;5002192;28;20046;-67
2024/01/03 11:14:44;;;;;;;6.88;1.98;;;;;;;;;;5005205;28;20450;-66
2024/01/03 11:17:13;;;;;;;6.22;1.65;;;;;;;;;;4995763;28;20073;-65
2024/01/03 11:19:40;;;;;;;7.15;2.15;;;;;;;;;;4999340;28;20397;-66
2024/01/03 11:22:06;;;;;;;4.53;1.70;;;;;;;;;;5003326;28;20061;-67
2024/01/03 11:24:32;;;;;;;7.53;1.85;;;;;;;;;;5001193;28;20057;-67
2024/01/03 11:27:03;;;;;;;4.68;1.40;;;;;;;;;;5004356;28;20384;-67
2024/01/03 11:29:43;;;;;;;5.80;1.80;;;;;;;;;;5003924;28;20439;-68
2024/01/03 11:32:12;;;;;;;4.35;1.85;;;;;;;;;;5005652;28;20497;-66
2024/01/03 11:34:45;;;;;;;3.65;1.77;;;;;;;;;;5003491;28;20053;-65
2024/01/03 11:37:11;;;;;;;7.53;1.95;;;;;;;;;;5003072;28;20469;-66
2024/01/03 11:39:46;;;;;;;7.68;1.85;;;;;;;;;;5004027;28;20487;-68
2024/01/03 11:42:38;;;;;;;4.30;1.80;;;;;;;;;;5001314;28;20058;-65
2024/01/03 11:45:12;;;;;;;6.38;2.35;;;;;;;;;;5004238;28;20045;-66
2024/01/03 11:47:43;;;;;;;6.95;2.13;;;;;;;;;;5005577;28;20345;-67
2024/01/03 11:50:12;;;;;;;4.95;1.60;;;;;;;;;;5004624;28;20455;-66
2024/01/03 11:52:41;;;;;;;10.40;1.95;;;;;;;;;;5000947;28;20070;-67
2024/01/03 11:55:12;;;;;;;11.45;1.88;;;;;;;;;;4994611;28;20052;-67
2024/01/03 11:57:42;;;;;;;7.20;2.13;;;;;;;;;;5000537;28;20054;-67
2024/01/03 12:00:24;;;;;;;16.05;2.33;;;;;;;;;;5002108;28;20058;-65
2024/01/03 12:02:57;;;;;;;10.45;1.65;;;;;;;;;;5000993;28;20057;-65
2024/01/03 12:05:26;;;;;;;5.35;1.85;;;;;;;;;;4999842;28;20045;-68
2024/01/03 12:07:55;;;;;;;14.15;1.63;;;;;;;;;;4996325;28;20104;-68
2024/01/03 12:10:28;;;;;;;8.07;1.90;;;;;;;;;;5003058;28;20064;-67
2024/01/03 12:12:54;;;;;;;4.85;1.65;;;;;;;;;;5002601;28;20061;-66
2024/01/03 12:15:28;;;;;;;9.07;1.92;;;;;;;;;;5006120;28;20054;-66
2024/01/03 12:18:07;;;;;;;15.48;2.47;;;;;;;;;;5005843;28;20073;-66
2024/01/03 12:20:34;;;;;;;6.15;1.83;;;;;;;;;;4996478;28;20050;-65
2024/01/03 12:23:17;;;;;;;5.22;1.70;;;;;;;;;;5006407;28;20487;-67
2024/01/03 12:25:48;;;;;;;3.75;1.88;;;;;;;;;;5005746;28;20246;-66
2024/01/03 12:28:22;;;;;;;7.68;1.65;;;;;;;;;;5006059;28;20137;-67
2024/01/03 12:30:49;;;;;;;5.22;1.58;;;;;;;;;;5004607;28;20050;-68
2024/01/03 12:33:18;;;;;;;7.22;1.70;;;;;;;;;;5007169;28;20060;-67
2024/01/03 12:35:48;;;;;;;13.40;1.95;;;;;;;;;;5008902;28;20448;-68
2024/01/03 12:38:21;;;;;;;5.78;1.63;;;;;;;;;;5011525;28;20469;-66
2024/01/03 12:40:49;;;;;;;5.63;1.58;;;;;;;;;;5004276;28;20532;-66
2024/01/03 12:43:15;;;;;;;6.93;1.90;;;;;;;;;;5004999;28;20135;-66
2024/01/03 12:45:44;;;;;;;4.35;1.80;;;;;;;;;;4992063;28;20140;-67
2024/01/03 12:48:11;;;;;;;6.60;1.42;;;;;;;;;;5005808;28;20129;-69
2024/01/03 12:50:38;;;;;;;7.63;1.40;;;;;;;;;;5007754;28;20061;-67
2024/01/03 12:53:05;;;;;;;6.40;1.52;;;;;;;;;;5002510;28;20050;-67
2024/01/03 12:55:32;;;;;;;6.88;1.48;;;;;;;;;;5008730;28;20107;-68
2024/01/03 12:57:59;;;;;;;6.13;1.40;;;;;;;;;;5007640;28;20494;-69
2024/01/03 13:00:26;;;;;;;8.02;2.05;;;;;;;;;;5002943;28;20046;-66
2024/01/03 13:02:52;;;;;;;3.47;1.67;;;;;;;;;;5002190;28;20500;-66
2024/01/03 13:05:22;;;;;;;1.40;1.25;;;;;;;;;;5015717;28;20069;-68
2024/01/03 13:07:48;;;;;;;4.07;1.02;;;;;;;;;;5001791;28;20054;-67
2024/01/03 13:10:16;;;;;;;2.63;1.17;;;;;;;;;;5015975;28;20561;-65
2024/01/03 13:12:42;;;;;;;9.00;1.30;;;;;;;;;;5002872;28;20050;-67
2024/01/03 13:15:08;;;;;;;1.95;0.82;;;;;;;;;;5002661;28;20112;-66
2024/01/03 13:17:34;;;;;;;3.05;1.15;;;;;;;;;;5003977;28;20049;-65
2024/01/03 13:20:00;;;;;;;4.47;1.00;;;;;;;;;;5009405;28;20147;-68
2024/01/03 13:22:26;;;;;;;1.65;1.08;;;;;;;;;;5006785;28;20542;-66
2024/01/03 13:24:53;;;;;;;1.70;1.00;;;;;;;;;;5007682;28;20061;-66
2024/01/03 13:27:21;;;;;;;3.38;1.10;;;;;;;;;;5002666;28;20065;-66
2024/01/03 13:29:48;;;;;;;3.53;0.95;;;;;;;;;;5006774;28;20124;-67
2024/01/03 13:32:14;;;;;;;9.05;1.20;;;;;;;;;;5006251;28;20411;-67
2024/01/03 13:34:48;;;;;;;4.55;1.10;;;;;;;;;;5006185;28;20054;-68
2024/01/03 13:37:15;;;;;;;4.13;1.08;;;;;;;;;;5008452;28;20088;-65
2024/01/03 13:39:41;;;;;;;3.88;0.90;;;;;;;;;;5007914;28;20096;-65
2024/01/03 13:42:07;;;;;;;2.88;1.02;;;;;;;;;;5006546;28;20133;-64
2024/01/03 13:44:33;;;;;;;6.68;1.48;;;;;;;;;;5005733;28;20046;-68
2024/01/03 13:47:00;;;;;;;5.80;1.20;;;;;;;;;;5005721;28;20050;-65
2024/01/03 13:49:26;;;;;;;5.65;1.00;;;;;;;;;;5004459;28;20107;-68
2024/01/03 13:51:53;;;;;;;7.43;1.20;;;;;;;;;;5006079;28;20045;-66
2024/01/03 13:54:22;;;;;;;7.10;1.35;;;;;;;;;;4998920;28;20135;-68
2024/01/03 13:56:50;;;;;;;2.35;1.10;;;;;;;;;;5006466;28;20427;-69
2024/01/03 13:59:16;;;;;;;2.28;0.98;;;;;;;;;;5005528;28;20054;-67
2024/01/03 14:01:49;;;;;;;3.33;1.00;;;;;;;;;;5002208;28;20127;-66
2024/01/03 14:04:19;;;;;;;11.00;1.30;;;;;;;;;;5007945;28;20622;-66
2024/01/03 14:06:45;;;;;;;1.98;1.00;;;;;;;;;;5000580;28;20046;-67
2024/01/03 14:09:18;;;;;;;4.57;1.10;;;;;;;;;;4997133;28;20497;-66
2024/01/03 14:11:45;;;;;;;3.17;1.20;;;;;;;;;;5002516;28;20054;-66
2024/01/03 14:14:14;;;;;;;3.65;0.80;;;;;;;;;;4994979;28;20058;-65
